N180FB LFOQ-LFRD
Flight info
| Callsign | N180FB |
|---|---|
| Flight time | N/A |
| Altitude | 16000 |
| Route | VANAD DCT DIDAK |
| Aircraft | P180/L-SBDFGM3RWXY/LB1 |
Departure
| Time | N/A |
|---|---|
| Airport | Blois Le Breuil Airfield (LFOQ) |
Arrival
| Time | 2026-05-01 07:45 |
|---|---|
| Airport | Dinard Pleurtuit Saint-Malo airport (LFRD) |
| Time | Latitude | Longitude | Altitude | Speed | Heading |
|---|---|---|---|---|---|
| 2026-05-01 07:23 | 48.16365 | 0.01777 | 16219 ft | 311 kts | 297° |
| 2026-05-01 07:23 | 48.18418 | -0.03929 | 16220 ft | 311 kts | 297° |
| 2026-05-01 07:24 | 48.19448 | -0.06785 | 16217 ft | 311 kts | 297° |
| 2026-05-01 07:24 | 48.20474 | -0.09648 | 16214 ft | 312 kts | 296° |
| 2026-05-01 07:24 | 48.21500 | -0.12509 | 16215 ft | 312 kts | 297° |
| 2026-05-01 07:24 | 48.22530 | -0.15368 | 16210 ft | 311 kts | 296° |
| 2026-05-01 07:25 | 48.23556 | -0.18230 | 16211 ft | 311 kts | 296° |
| 2026-05-01 07:25 | 48.24576 | -0.21093 | 16216 ft | 311 kts | 296° |
| 2026-05-01 07:25 | 48.25588 | -0.23953 | 16205 ft | 310 kts | 294° |
| 2026-05-01 07:25 | 48.26137 | -0.27037 | 16199 ft | 305 kts | 271° |
| 2026-05-01 07:26 | 48.26229 | -0.30207 | 16205 ft | 304 kts | 270° |
| 2026-05-01 07:26 | 48.26394 | -0.33375 | 16206 ft | 305 kts | 272° |
| 2026-05-01 07:26 | 48.26597 | -0.36548 | 16207 ft | 305 kts | 272° |
| 2026-05-01 07:26 | 48.26761 | -0.39719 | 16208 ft | 305 kts | 271° |
| 2026-05-01 07:27 | 48.26906 | -0.42887 | 16204 ft | 305 kts | 271° |
| 2026-05-01 07:27 | 48.27074 | -0.46062 | 16205 ft | 305 kts | 272° |
| 2026-05-01 07:27 | 48.27244 | -0.49196 | 16205 ft | 305 kts | 272° |
| 2026-05-01 07:27 | 48.27402 | -0.52368 | 16205 ft | 305 kts | 271° |
| 2026-05-01 07:28 | 48.27559 | -0.55543 | 16206 ft | 305 kts | 271° |
| 2026-05-01 07:28 | 48.27724 | -0.58715 | 16206 ft | 305 kts | 271° |
| 2026-05-01 07:28 | 48.27883 | -0.61889 | 16206 ft | 304 kts | 271° |
| 2026-05-01 07:28 | 48.28039 | -0.65059 | 16206 ft | 304 kts | 271° |
| 2026-05-01 07:29 | 48.28199 | -0.68224 | 16208 ft | 305 kts | 271° |
| 2026-05-01 07:29 | 48.28355 | -0.71402 | 16206 ft | 305 kts | 271° |
| 2026-05-01 07:29 | 48.28510 | -0.74570 | 16206 ft | 305 kts | 271° |
| 2026-05-01 07:29 | 48.28668 | -0.77739 | 16207 ft | 305 kts | 271° |
| 2026-05-01 07:30 | 48.28821 | -0.80915 | 16205 ft | 305 kts | 271° |
| 2026-05-01 07:30 | 48.28970 | -0.84092 | 16205 ft | 305 kts | 271° |
| 2026-05-01 07:30 | 48.29127 | -0.87269 | 16213 ft | 305 kts | 271° |
| 2026-05-01 07:30 | 48.29282 | -0.90443 | 16207 ft | 305 kts | 271° |
| 2026-05-01 07:31 | 48.29428 | -0.93615 | 16210 ft | 305 kts | 271° |
| 2026-05-01 07:31 | 48.29878 | -1.03262 | 15649 ft | 320 kts | 271° |
| 2026-05-01 07:32 | 48.30199 | -1.10076 | 14793 ft | 336 kts | 271° |
| 2026-05-01 07:32 | 48.30360 | -1.13601 | 14343 ft | 341 kts | 271° |
| 2026-05-01 07:33 | 48.30681 | -1.20759 | 13403 ft | 344 kts | 271° |
| 2026-05-01 07:33 | 48.30849 | -1.24341 | 12947 ft | 343 kts | 271° |
| 2026-05-01 07:33 | 48.31153 | -1.31485 | 12039 ft | 342 kts | 271° |
| 2026-05-01 07:34 | 48.31319 | -1.35037 | 11591 ft | 340 kts | 271° |
| 2026-05-01 07:34 | 48.31617 | -1.42093 | 10698 ft | 334 kts | 270° |
| 2026-05-01 07:34 | 48.31770 | -1.45522 | 10264 ft | 323 kts | 271° |
| 2026-05-01 07:35 | 48.31920 | -1.48815 | 9827 ft | 309 kts | 271° |
| 2026-05-01 07:35 | 48.32045 | -1.51971 | 9419 ft | 297 kts | 270° |
| 2026-05-01 07:35 | 48.32162 | -1.54984 | 9040 ft | 288 kts | 271° |
| 2026-05-01 07:35 | 48.32297 | -1.57960 | 8663 ft | 283 kts | 271° |
| 2026-05-01 07:36 | 48.32422 | -1.60903 | 8292 ft | 281 kts | 270° |
| 2026-05-01 07:36 | 48.32532 | -1.63819 | 7923 ft | 278 kts | 271° |
| 2026-05-01 07:36 | 48.32655 | -1.66712 | 7558 ft | 276 kts | 271° |
| 2026-05-01 07:36 | 48.32779 | -1.69584 | 7190 ft | 274 kts | 271° |
| 2026-05-01 07:37 | 48.33003 | -1.75272 | 6465 ft | 269 kts | 271° |
| 2026-05-01 07:37 | 48.33117 | -1.78073 | 6104 ft | 268 kts | 271° |
| 2026-05-01 07:37 | 48.33224 | -1.80862 | 5747 ft | 266 kts | 271° |
| 2026-05-01 07:38 | 48.33337 | -1.83644 | 5392 ft | 266 kts | 271° |
| 2026-05-01 07:38 | 48.33448 | -1.86372 | 5049 ft | 264 kts | 271° |
| 2026-05-01 07:38 | 48.33654 | -1.91745 | 4350 ft | 247 kts | 272° |
| 2026-05-01 07:39 | 48.33753 | -1.94306 | 4025 ft | 243 kts | 271° |
| 2026-05-01 07:39 | 48.33851 | -1.96827 | 3708 ft | 241 kts | 271° |
| 2026-05-01 07:39 | 48.34855 | -2.01387 | 3195 ft | 235 kts | 322° |
| 2026-05-01 07:40 | 48.36361 | -2.02236 | 3190 ft | 231 kts | 349° |
| 2026-05-01 07:40 | 48.37953 | -2.02567 | 3192 ft | 230 kts | 351° |
| 2026-05-01 07:40 | 48.39534 | -2.02924 | 3191 ft | 230 kts | 349° |
| 2026-05-01 07:40 | 48.41097 | -2.03344 | 3191 ft | 225 kts | 349° |
| 2026-05-01 07:41 | 48.42597 | -2.03744 | 3187 ft | 214 kts | 350° |
| 2026-05-01 07:41 | 48.44031 | -2.04115 | 2951 ft | 208 kts | 350° |
| 2026-05-01 07:41 | 48.46773 | -2.04834 | 2429 ft | 192 kts | 350° |
| 2026-05-01 07:42 | 48.48067 | -2.05172 | 2175 ft | 184 kts | 349° |
| 2026-05-01 07:42 | 48.49298 | -2.05498 | 1923 ft | 176 kts | 349° |
| 2026-05-01 07:42 | 48.50473 | -2.05807 | 1702 ft | 164 kts | 349° |
| 2026-05-01 07:42 | 48.51548 | -2.06089 | 1495 ft | 147 kts | 349° |
| 2026-05-01 07:43 | 48.52505 | -2.06342 | 1306 ft | 134 kts | 348° |
| 2026-05-01 07:43 | 48.53404 | -2.06575 | 1127 ft | 127 kts | 348° |
| 2026-05-01 07:43 | 48.55137 | -2.07033 | 793 ft | 125 kts | 350° |
| 2026-05-01 07:44 | 48.56805 | -2.07480 | 494 ft | 120 kts | 351° |
| 2026-05-01 07:44 | 48.58448 | -2.07910 | 225 ft | 106 kts | 350° |
| 2026-05-01 07:45 | 48.58954 | -2.08044 | 222 ft | 41 kts | 349° |
| 2026-05-01 07:45 | 48.59136 | -2.08091 | 223 ft | 16 kts | 357° |
| 2026-05-01 07:45 | 48.59190 | -2.08030 | 223 ft | 13 kts | 74° |
| 2026-05-01 07:45 | 48.59206 | -2.07904 | 224 ft | 7 kts | 80° |
| 2026-05-01 07:46 | 48.59168 | -2.07827 | 224 ft | 15 kts | 170° |
| 2026-05-01 07:46 | 48.59056 | -2.07797 | 224 ft | 15 kts | 170° |
| 2026-05-01 07:46 | 48.59009 | -2.07709 | 224 ft | 2 kts | 136° |
| 2026-05-01 07:47 | 48.59002 | -2.07713 | 224 ft | 2 kts | 229° |
| 2026-05-01 07:47 | 48.58998 | -2.07717 | 224 ft | 0 kts | 214° |